SLVR/VVI METAR and TAF weather

Enter ICAO airport designator
Station Type Date Time Source
SLVR METAR 2022/12/08 13:00 UTC NOAA

SLVR 081300Z 34012G22KT 9999 FEW012 BKN200 29/24 Q1009


Station Type Date Time Source
SLVR Decoded METAR 2022/12/08 13:00 UTC NOAA

Viru-Viru, Bolivia (SLVR) 17-38S 063-08W
Dec 08, 2022 - 08:00 AM EST / 2022.12.08 1300 UTC
Wind: from the NNW (340 degrees) at 14 MPH (12 KT) gusting to 25 MPH (22 KT):0
Visibility: greater than 7 mile(s):0
Sky conditions: mostly cloudy
Temperature: 84 F (29 C)
Dew Point: 75 F (24 C)
Relative Humidity: 74%
Pressure (altimeter): 29.80 in. Hg (1009 hPa)
ob: SLVR 081300Z 34012G22KT 9999 FEW012 BKN200 29/24 Q1009
cycle: 13

Station Type Date Time Source
SLVR TAF 2022/12/08 12:55 UTC NOAA

TAF SLVR 081000Z 0812/0912 34012KT 9999 SCT017 TX36/0820Z TN23/0910Z
BECMG 0814/0816 34020G30KT SCT023 SCT070
BECMG 0901/0903 34010KT NSC PROB40
TEMPO 0908/0910 BKN012

Example: see airport list